Terminal Aerodrome Forecast
Issued by NWS Upton, NY

Home | Current Version | Previous Version | Text Only | Print | Product List | Glossary On
Versions: 1 2 3 4 5 6 7 8 9 10 11 12 13 14 15 16 17 18 19 20 21 22 23 24 25 26 27 28 29 30 31 32 33 34
000
FTUS41 KOKX 271146
TAFLGA
TAF
KLGA 271146Z 2712/2812 31007KT P6SM FEW025 FEW045 SCT080
     FM271500 33006KT P6SM BKN045
     FM271800 29005KT P6SM BKN045
     FM272000 18008KT P6SM BKN045
     FM280300 14004KT P6SM BKN045
     FM280600 VRB03KT P6SM BKN030
     FM281100 09005KT P6SM BKN015=

USA.gov is the U.S. government's official web portal to all federal, state and local government web resources and services.